Airfield :
LOGIN :

Register | Disclaimer

   EN    FR    IT 

 










Legend :    VFR   Marginal VFR   IFR   Intensive IFR   Very Intensive IFR
Visi :
Ceiling :
>= 8 km
>= 3000ft
5 to 8 km
1000 to 3000 ft
1500m to 5 km
500 to 1000 ft
800 to 1500m
200 to 500 ft
< 800m
< 200 ft
Symbols :   Thunderstorms  Fog  Heavy snow  Heavy precipitations  Wind > 20 kt
SIGMETs :     Misc.  Thunderstorms  Icing  Turbulence  Mountain Waves  Volcanic Ashes







- Airport Elevation : 238 ft
- IATA code : FAB
- Download approach charts


EGLF - Farnborough

CURRENT METAR :
  • 201420Z 14011KT 9999 FEW038 23/13 Q1014

EXPIRED METARs :
  • 201350Z 18010KT 150V210 9999 FEW038 23/13 Q1014
  • 201320Z 14011KT 110V170 9999 FEW039 23/12 Q1014
  • 201250Z 15010KT 120V180 9999 FEW032 24/13 Q1014
  • 201220Z 17009KT 130V200 9999 FEW030 23/14 Q1014
  • 201150Z 17007KT 120V220 9999 FEW034 23/14 Q1014

TAF TAF EGLF
Valid from the 20 at 12:00 until the 20 at 21:00 UTC


201059Z 2012/2021 VRB05KT 9999 FEW035
PROB40
TEMPO 2012/2021 7000 SHRA
PROB30
TEMPO 2012/2018 3000 +TSRA
ATIS : +44 09063 800 400 (*282)
No reported NOTAMs for that airfield.



MET'MAP, your aeronautical weather chart ! - Copyright ORBIFLY December 2007 - Disclaimer

ORBIFLY MET'MAP TEAM :

Programming & Development : Alexandra Zaïnal
Concept & Development : Baudouin d'Aumeries
Co-Development & Prog : Marc-Olivier Méhu
Technical & hardware support : Manuel Goepfert

Contact : metmap@orbifly.com




SOURCES & CREDITS :

   NOAA